Time,TemperatureF,DewpointF,PressureIn,WindDirection,WindDirectionDegrees,WindSpeedMPH,WindSpeedGustMPH,Humidity,HourlyPrecipIn,Conditions,Clouds,dailyrainin,SoftwareType,DateUTC
2013-09-05 00:00:00,50.0,37.0,-100.00,SSW,203,14.0,21.0,60,-99.99,,,-99.99,,2013-09-05 06:00:00,
2013-09-05 00:52:00,50.0,37.0,-100.00,SSW,203,14.0,21.0,60,-99.99,,,-99.99,,2013-09-05 06:52:00,
2013-09-05 02:00:00,52.0,37.0,-100.00,South,186,8.0,12.0,58,-99.99,,,-99.99,,2013-09-05 08:00:00,
2013-09-05 02:52:00,52.0,37.0,-100.00,South,186,8.0,12.0,58,-99.99,,,-99.99,,2013-09-05 08:52:00,
2013-09-05 04:00:00,51.0,37.0,-100.00,SSW,194,12.0,16.0,58,-99.99,,,-99.99,,2013-09-05 10:00:00,
2013-09-05 04:53:00,51.0,37.0,-100.00,SSW,194,12.0,16.0,58,-99.99,,,-99.99,,2013-09-05 10:53:00,
2013-09-05 06:00:00,50.0,38.0,-100.00,SSW,192,17.0,19.0,62,-99.99,,,-99.99,,2013-09-05 12:00:00,
2013-09-05 06:52:00,50.0,38.0,-100.00,SSW,192,17.0,19.0,62,-99.99,,,-99.99,,2013-09-05 12:52:00,
2013-09-05 08:00:00,52.0,37.0,-100.00,SSW,213,14.0,20.0,57,-99.99,,,-99.99,,2013-09-05 14:00:00,
2013-09-05 08:52:00,52.0,37.0,-100.00,SSW,213,14.0,20.0,57,-99.99,,,-99.99,,2013-09-05 14:52:00,
2013-09-05 10:00:00,54.0,39.0,-100.00,SW,231,4.0,10.0,57,-99.99,,,-99.99,,2013-09-05 16:00:00,
2013-09-05 10:54:00,54.0,39.0,-100.00,SW,231,4.0,10.0,57,-99.99,,,-99.99,,2013-09-05 16:54:00,
2013-09-05 13:00:00,61.0,38.0,-100.00,SW,235,5.0,15.0,43,-99.99,,,-99.99,,2013-09-05 19:00:00,
2013-09-05 13:52:00,61.0,38.0,-100.00,SW,235,5.0,15.0,43,-99.99,,,-99.99,,2013-09-05 19:52:00,
2013-09-05 15:00:00,61.0,38.0,-100.00,North,6,4.0,19.0,43,-99.99,,,-99.99,,2013-09-05 21:00:00,
2013-09-05 15:54:00,61.0,38.0,-100.00,North,6,4.0,19.0,43,-99.99,,,-99.99,,2013-09-05 21:54:00,
2013-09-05 17:00:00,57.0,43.0,-100.00,NE,46,8.0,17.0,59,-99.99,,,-99.99,,2013-09-05 23:00:00,
2013-09-05 17:53:00,57.0,43.0,-100.00,NE,46,8.0,17.0,59,-99.99,,,-99.99,,2013-09-05 23:53:00,
2013-09-05 19:00:00,55.0,40.0,-100.00,ENE,63,9.0,20.0,57,-99.99,,,-99.99,,2013-09-06 01:00:00,
2013-09-05 19:52:00,55.0,40.0,-100.00,ENE,63,9.0,20.0,57,-99.99,,,-99.99,,2013-09-06 01:52:00,
2013-09-05 22:00:00,46.0,41.0,-100.00,East,86,4.0,13.0,83,-99.99,,,-99.99,,2013-09-06 04:00:00,
2013-09-05 22:54:00,46.0,41.0,-100.00,East,86,4.0,13.0,83,-99.99,,,-99.99,,2013-09-06 04:54:00,
2013-09-05 23:00:00,48.0,39.0,-100.00,SSE,162,2.0,12.0,71,-99.99,,,-99.99,,2013-09-06 05:00:00,
2013-09-05 23:52:00,48.0,39.0,-100.00,SSE,162,2.0,12.0,71,-99.99,,,-99.99,,2013-09-06 05:52:00,